Time;durP1;ratioP1;P1;durP2;ratioP2;P2;SDS_P1;SDS_P2;PMS_P1;PMS_P2;Temp;Humidity;BMP_temperature;BMP_pressure;BME280_temperature;BME280_humidity;BME280_pressure;Samples;Min_cycle;Max_cycle;Signal;HPM_P1;HPM_P2
2021/12/28 00:01:48;;;;;;;19.80;12.68;;;;;;;0.00;50.43;99327.91;1794548;79;20975;-68
2021/12/28 00:04:15;;;;;;;20.40;12.25;;;;;;;0.07;50.30;99323.91;1790407;79;20935;-64
2021/12/28 00:06:41;;;;;;;16.35;11.00;;;;;;;0.08;50.31;99319.02;1788721;79;20994;-62
2021/12/28 00:09:10;;;;;;;17.92;11.90;;;;;;;0.11;50.18;99316.20;1788160;79;49551;-63
2021/12/28 00:11:36;;;;;;;21.37;11.95;;;;;;;0.09;50.27;99321.17;1801643;79;20966;-67
2021/12/28 00:14:04;;;;;;;17.42;11.18;;;;;;;0.13;50.16;99315.61;1790434;79;20863;-66
2021/12/28 00:18:59;;;;;;;19.62;12.25;;;;;;;0.06;50.28;99311.77;1802347;79;20955;-64
2021/12/28 00:21:25;;;;;;;19.02;12.85;;;;;;;0.11;50.13;99328.44;1796173;79;21143;-66
2021/12/28 00:23:51;;;;;;;15.83;10.30;;;;;;;-0.05;50.39;99318.22;1785405;79;20962;-67
2021/12/28 00:26:20;;;;;;;16.10;10.40;;;;;;;0.00;50.33;99319.56;1784269;79;21477;-64
2021/12/28 00:28:48;;;;;;;14.95;10.15;;;;;;;-0.09;50.54;99315.47;1795510;79;20997;-65
2021/12/28 00:31:15;;;;;;;17.52;10.82;;;;;;;0.02;50.41;99318.64;1789613;79;20955;-65
2021/12/28 00:33:44;;;;;;;19.23;10.65;;;;;;;-0.09;50.55;99324.63;1782815;79;21802;-63
2021/12/28 00:36:11;;;;;;;19.77;11.75;;;;;;;0.02;50.35;99316.86;1783772;79;20942;-66
2021/12/28 00:38:38;;;;;;;17.05;10.75;;;;;;;-0.05;50.47;99322.98;1787008;79;20957;-63
2021/12/28 00:41:05;;;;;;;18.75;11.20;;;;;;;0.00;50.33;99314.34;1777926;79;20936;-62
2021/12/28 00:43:31;;;;;;;21.73;11.50;;;;;;;0.04;50.19;99309.73;1788861;79;21481;-63
2021/12/28 00:46:00;;;;;;;20.95;12.00;;;;;;;-0.12;50.39;99306.06;1800731;79;21978;-62
2021/12/28 00:48:27;;;;;;;22.82;12.80;;;;;;;-0.22;50.55;99314.19;1792727;79;21460;-63
2021/12/28 00:50:53;;;;;;;18.55;11.50;;;;;;;-0.18;50.41;99313.48;1793870;79;21003;-64
2021/12/28 00:53:20;;;;;;;19.15;11.33;;;;;;;-0.16;50.38;99310.31;1792981;79;20888;-66
2021/12/28 00:55:46;;;;;;;17.17;11.20;;;;;;;-0.26;50.59;99307.48;1798293;79;21002;-62
2021/12/28 00:58:13;;;;;;;15.75;11.03;;;;;;;-0.30;50.69;99300.80;1784964;79;21812;-64
2021/12/28 01:00:40;;;;;;;17.55;10.93;;;;;;;-0.20;50.51;99307.53;1786791;79;21697;-63
2021/12/28 01:03:08;;;;;;;17.77;11.12;;;;;;;-0.25;50.51;99305.24;1801191;79;20919;-63
2021/12/28 01:05:35;;;;;;;16.73;11.15;;;;;;;-0.24;50.51;99315.23;1799435;79;21013;-67
2021/12/28 01:08:01;;;;;;;17.15;10.68;;;;;;;-0.30;50.52;99306.03;1788399;79;20876;-63
2021/12/28 01:10:33;;;;;;;18.02;11.48;;;;;;;-0.38;50.75;99310.95;1785360;79;21134;-62
2021/12/28 01:12:59;;;;;;;18.98;11.45;;;;;;;-0.45;50.86;99313.63;1792683;79;20895;-64
2021/12/28 01:15:27;;;;;;;16.75;10.68;;;;;;;-0.47;51.00;99316.80;1803018;79;21495;-65
2021/12/28 01:17:53;;;;;;;20.32;12.35;;;;;;;-0.46;51.01;99314.56;1794079;79;21643;-66
2021/12/28 01:20:20;;;;;;;24.12;12.40;;;;;;;-0.41;50.86;99315.08;1800458;79;20927;-64
2021/12/28 01:22:46;;;;;;;21.52;11.40;;;;;;;-0.43;51.03;99312.21;1783466;79;21103;-67
2021/12/28 01:25:14;;;;;;;19.55;11.25;;;;;;;-0.37;50.92;99307.41;1789797;79;21106;-65
2021/12/28 01:27:41;;;;;;;18.98;11.05;;;;;;;-0.41;51.00;99311.62;1788961;79;21633;-63
2021/12/28 01:30:09;;;;;;;21.68;12.53;;;;;;;-0.40;50.99;99308.92;1795305;79;20888;-63
2021/12/28 01:32:36;;;;;;;19.95;11.90;;;;;;;-0.41;51.05;99307.70;1787810;79;20933;-63
2021/12/28 01:35:05;;;;;;;16.87;10.72;;;;;;;-0.37;51.01;99309.19;1783095;79;21123;-62
2021/12/28 01:37:33;;;;;;;21.10;12.15;;;;;;;-0.39;51.05;99303.23;1796768;79;20836;-66
2021/12/28 01:40:00;;;;;;;17.07;11.28;;;;;;;-0.33;50.99;99311.47;1796617;79;20895;-64
2021/12/28 01:42:28;;;;;;;19.67;12.03;;;;;;;-0.42;51.19;99309.97;1800888;79;21574;-65
2021/12/28 01:44:54;;;;;;;20.10;11.18;;;;;;;-0.36;51.12;99311.68;1793920;79;20989;-66
2021/12/28 01:47:21;;;;;;;23.15;12.47;;;;;;;-0.32;51.13;99313.16;1800075;79;21212;-64
2021/12/28 01:49:47;;;;;;;19.70;11.10;;;;;;;-0.21;50.95;99307.19;1803414;79;20946;-64
2021/12/28 01:52:14;;;;;;;19.57;12.58;;;;;;;-0.22;50.96;99302.89;1788679;79;20915;-65
2021/12/28 01:54:42;;;;;;;19.90;11.93;;;;;;;-0.23;51.09;99301.20;1798875;79;21010;-65
2021/12/28 01:57:08;;;;;;;22.13;12.20;;;;;;;-0.19;51.07;99296.14;1786289;79;20977;-65
2021/12/28 01:59:35;;;;;;;21.85;12.88;;;;;;;-0.15;51.05;99294.50;1801893;79;21138;-63
2021/12/28 02:02:01;;;;;;;20.97;11.05;;;;;;;-0.14;51.16;99297.49;1793496;79;20935;-63
2021/12/28 02:04:28;;;;;;;18.73;11.93;;;;;;;-0.08;51.03;99297.04;1797085;79;20927;-65
2021/12/28 02:06:57;;;;;;;21.52;11.90;;;;;;;0.01;50.91;99296.88;1787336;79;20956;-65
2021/12/28 02:09:24;;;;;;;20.72;12.37;;;;;;;-0.05;51.10;99290.29;1778417;79;20882;-67
2021/12/28 02:11:52;;;;;;;21.15;12.73;;;;;;;-0.10;51.26;99296.31;1787165;79;21197;-65
2021/12/28 02:14:19;;;;;;;24.23;12.40;;;;;;;-0.12;51.50;99291.67;1792820;79;20876;-64
2021/12/28 02:16:45;;;;;;;20.70;12.30;;;;;;;-0.13;51.56;99296.53;1785796;79;20986;-65
2021/12/28 02:19:13;;;;;;;21.75;12.28;;;;;;;0.01;51.25;99291.64;1803552;79;21600;-63
2021/12/28 02:21:40;;;;;;;18.35;11.63;;;;;;;-0.01;51.36;99290.45;1790413;79;21382;-64
2021/12/28 02:24:07;;;;;;;18.37;11.15;;;;;;;-0.02;51.42;99295.31;1779977;79;21787;-64
2021/12/28 02:26:35;;;;;;;17.92;10.98;;;;;;;0.04;51.36;99280.12;1777833;79;21483;-66
2021/12/28 02:29:04;;;;;;;16.57;10.98;;;;;;;-0.13;51.72;99300.45;1790005;79;20944;-65
2021/12/28 02:31:31;;;;;;;16.55;10.28;;;;;;;-0.05;51.65;99293.38;1795150;79;21429;-64
2021/12/28 02:33:57;;;;;;;19.15;11.30;;;;;;;-0.06;51.64;99291.72;1796730;79;20946;-65
2021/12/28 02:36:23;;;;;;;19.07;11.88;;;;;;;0.04;51.57;99295.81;1791350;78;21132;-65
2021/12/28 02:38:50;;;;;;;17.15;10.82;;;;;;;0.08;51.48;99297.29;1800422;79;21050;-68
2021/12/28 02:41:16;;;;;;;15.30;10.15;;;;;;;0.14;51.36;99304.68;1798369;78;21444;-65
2021/12/28 02:43:47;;;;;;;17.62;10.80;;;;;;;0.11;51.42;99303.58;1797678;78;21558;-64
2021/12/28 02:46:13;;;;;;;12.70;9.58;;;;;;;0.23;51.15;99297.03;1804986;78;20994;-63
2021/12/28 02:48:41;;;;;;;19.10;11.70;;;;;;;0.20;51.24;99301.64;1809280;78;21135;-64
2021/12/28 02:51:14;;;;;;;17.37;11.20;;;;;;;0.16;51.32;99303.62;1807435;78;20879;-65
2021/12/28 02:53:42;;;;;;;18.45;10.53;;;;;;;0.26;51.16;99309.06;1797985;78;20883;-62
2021/12/28 02:56:09;;;;;;;18.82;10.28;;;;;;;0.31;51.03;99304.33;1797660;78;20930;-65
2021/12/28 02:58:39;;;;;;;16.55;10.15;;;;;;;0.36;50.97;99300.44;1802469;78;21481;-65
2021/12/28 03:01:22;;;;;;;14.93;10.50;;;;;;;0.21;51.32;99305.44;1797601;78;21059;-62
2021/12/28 03:03:53;;;;;;;14.03;9.83;;;;;;;0.19;51.35;99296.88;1800487;79;21031;-64
2021/12/28 03:06:21;;;;;;;18.10;9.50;;;;;;;0.14;51.65;99298.14;1799836;78;21473;-63
2021/12/28 03:08:53;;;;;;;13.85;9.23;;;;;;;0.15;51.71;99293.28;1799419;78;21001;-61
2021/12/28 03:11:25;;;;;;;16.02;9.50;;;;;;;0.20;51.60;99292.48;1805838;78;20914;-66
2021/12/28 03:13:54;;;;;;;12.60;9.10;;;;;;;0.25;51.45;99281.20;1803749;78;21923;-62
2021/12/28 03:16:21;;;;;;;16.40;9.65;;;;;;;0.10;51.84;99287.08;1809895;78;20883;-65
2021/12/28 03:18:49;;;;;;;14.87;9.18;;;;;;;0.21;51.69;99277.16;1808754;78;20983;-63
2021/12/28 03:21:18;;;;;;;13.70;9.03;;;;;;;0.30;51.44;99269.94;1811884;78;20974;-64
2021/12/28 03:23:44;;;;;;;14.95;9.15;;;;;;;0.32;51.50;99277.20;1800547;78;21406;-65
2021/12/28 03:26:11;;;;;;;17.70;9.75;;;;;;;0.35;51.44;99276.98;1791163;79;21131;-66
2021/12/28 03:28:40;;;;;;;15.72;10.08;;;;;;;0.35;51.47;99270.44;1789403;78;20927;-63
2021/12/28 03:31:12;;;;;;;16.57;9.73;;;;;;;0.34;51.55;99272.21;1801775;78;20962;-65
2021/12/28 03:33:40;;;;;;;15.72;9.33;;;;;;;0.42;51.42;99273.80;1797287;78;21460;-65
2021/12/28 03:36:07;;;;;;;12.28;8.98;;;;;;;0.34;51.62;99280.06;1745301;81;20991;-64
2021/12/28 03:38:35;;;;;;;15.48;10.23;;;;;;;0.21;51.93;99283.20;1737243;82;21853;-62
2021/12/28 03:41:07;;;;;;;14.33;8.95;;;;;;;0.25;51.94;99279.91;1717659;82;21154;-64
2021/12/28 03:43:31;;;;;;;17.23;9.88;;;;;;;0.24;52.00;99278.22;1794769;79;20892;-65
2021/12/28 03:45:59;;;;;;;15.38;10.18;;;;;;;0.27;51.99;99279.31;1796358;79;20935;-62
2021/12/28 03:48:25;;;;;;;14.87;8.83;;;;;;;0.34;51.83;99273.52;1796215;79;21042;-65
2021/12/28 03:50:51;;;;;;;17.07;9.53;;;;;;;0.34;51.80;99268.28;1785843;79;21145;-65
2021/12/28 03:53:18;;;;;;;16.77;10.35;;;;;;;0.35;51.88;99266.51;1789536;79;20980;-63
2021/12/28 03:55:45;;;;;;;15.23;10.38;;;;;;;0.35;51.91;99273.05;1790844;79;21002;-64
2021/12/28 03:58:11;;;;;;;17.17;9.83;;;;;;;0.42;51.79;99276.89;1794326;79;20937;-67
2021/12/28 04:00:42;;;;;;;17.10;10.58;;;;;;;0.47;51.65;99273.49;1787746;79;20990;-65
2021/12/28 04:03:09;;;;;;;16.40;11.43;;;;;;;0.49;51.68;99270.28;1789758;79;21122;-65
2021/12/28 04:05:37;;;;;;;18.48;11.25;;;;;;;0.60;51.44;99262.45;1794759;79;21121;-65
2021/12/28 04:08:05;;;;;;;19.52;10.98;;;;;;;0.60;51.47;99272.92;1786829;79;20920;-67
2021/12/28 04:10:38;;;;;;;16.82;11.40;;;;;;;0.58;51.48;99270.43;1791016;79;20923;-65
2021/12/28 04:13:00;;;;;;;25.12;12.18;;;;;;;0.50;51.68;99271.47;1795988;79;20978;-65
2021/12/28 04:15:26;;;;;;;19.52;10.58;;;;;;;0.54;51.61;99268.16;1782318;79;21119;-65
2021/12/28 04:17:53;;;;;;;17.80;11.28;;;;;;;0.47;51.79;99263.83;1800155;79;21461;-61
2021/12/28 04:20:20;;;;;;;23.25;11.53;;;;;;;0.52;51.74;99263.52;1799980;79;20967;-66
2021/12/28 04:22:47;;;;;;;25.85;12.90;;;;;;;0.59;51.63;99261.64;1791848;79;20999;-66
2021/12/28 04:25:15;;;;;;;26.87;12.78;;;;;;;0.60;51.55;99269.84;1791075;79;21417;-62
2021/12/28 04:27:42;;;;;;;22.22;13.10;;;;;;;0.57;51.57;99267.44;1789980;79;21807;-63
2021/12/28 04:30:10;;;;;;;18.50;11.97;;;;;;;0.65;51.43;99261.67;1796772;79;21462;-63
2021/12/28 04:32:37;;;;;;;20.88;12.50;;;;;;;0.54;51.64;99283.86;1781164;79;20976;-66
2021/12/28 04:35:04;;;;;;;23.40;13.30;;;;;;;0.56;51.62;99263.64;1783221;79;20960;-62
2021/12/28 04:37:32;;;;;;;23.67;12.65;;;;;;;0.40;52.05;99261.31;1783324;79;20880;-67
2021/12/28 04:39:59;;;;;;;23.12;13.68;;;;;;;0.59;51.66;99268.66;1793479;79;21025;-65
2021/12/28 04:42:27;;;;;;;23.02;12.85;;;;;;;0.46;51.94;99267.88;1795656;79;21671;-63
2021/12/28 04:44:54;;;;;;;24.70;13.05;;;;;;;0.52;51.95;99270.06;1797273;79;21472;-63
2021/12/28 04:47:20;;;;;;;20.30;11.57;;;;;;;0.48;51.98;99269.44;1799101;79;21055;-64
2021/12/28 04:49:47;;;;;;;19.73;12.28;;;;;;;0.62;51.69;99264.50;1785485;79;21037;-64
2021/12/28 04:52:14;;;;;;;20.77;13.00;;;;;;;0.60;51.73;99268.53;1784483;79;21056;-64
2021/12/28 04:54:41;;;;;;;24.15;13.13;;;;;;;0.67;51.98;99265.00;1789265;79;20924;-63
2021/12/28 04:57:07;;;;;;;25.10;13.58;;;;;;;0.64;52.37;99271.77;1789507;79;20927;-66
2021/12/28 04:59:34;;;;;;;21.77;12.75;;;;;;;0.71;54.67;99278.21;1791513;79;20976;-66
2021/12/28 05:02:04;;;;;;;23.80;13.43;;;;;;;0.78;52.71;99278.14;1791504;79;20978;-63
2021/12/28 05:04:31;;;;;;;27.32;14.55;;;;;;;0.74;52.50;99277.15;1783908;79;21771;-63
2021/12/28 05:06:58;;;;;;;28.15;16.25;;;;;;;0.64;52.69;99278.31;1786288;79;20915;-61
2021/12/28 05:09:24;;;;;;;25.37;14.70;;;;;;;0.60;52.65;99269.84;1794001;79;20955;-63
2021/12/28 05:11:50;;;;;;;27.00;14.38;;;;;;;0.70;52.47;99262.63;1797878;79;20946;-66
2021/12/28 05:14:18;;;;;;;26.68;13.32;;;;;;;0.65;52.88;99271.30;1794129;79;21513;-64
2021/12/28 05:16:45;;;;;;;26.62;13.98;;;;;;;0.56;53.64;99275.42;1786472;79;21143;-64
2021/12/28 05:19:14;;;;;;;24.63;14.18;;;;;;;0.76;53.94;99271.31;1788741;79;21422;-65
2021/12/28 05:21:40;;;;;;;22.15;13.90;;;;;;;0.84;53.05;99269.80;1785900;79;21430;-62
2021/12/28 05:24:07;;;;;;;22.45;13.35;;;;;;;0.83;52.97;99271.24;1790678;79;20958;-64
2021/12/28 05:26:33;;;;;;;20.57;12.37;;;;;;;0.86;52.56;99279.69;1784520;79;20922;-62
2021/12/28 05:28:59;;;;;;;23.22;12.58;;;;;;;0.86;52.45;99282.80;1787125;79;21090;-65
2021/12/28 05:31:27;;;;;;;24.50;13.18;;;;;;;0.76;58.70;99277.39;1785647;79;20966;-65
2021/12/28 05:33:54;;;;;;;24.30;13.60;;;;;;;0.84;56.76;99288.14;1785292;79;20893;-61
2021/12/28 05:36:21;;;;;;;25.80;13.28;;;;;;;0.89;55.84;99284.70;1771391;79;20944;-65
2021/12/28 05:38:48;;;;;;;29.57;14.35;;;;;;;0.90;53.30;99290.31;1773746;80;21702;-66
2021/12/28 05:41:16;;;;;;;25.00;15.32;;;;;;;0.81;52.82;99284.94;1780095;79;20964;-64
2021/12/28 05:43:42;;;;;;;25.72;15.65;;;;;;;0.85;53.76;99289.82;1771951;80;20889;-65
2021/12/28 05:46:08;;;;;;;30.45;15.43;;;;;;;1.00;53.20;99291.76;1777682;80;20928;-65
2021/12/28 05:48:35;;;;;;;27.58;14.10;;;;;;;0.94;52.88;99283.87;1777982;80;21525;-68
2021/12/28 05:51:01;;;;;;;26.95;15.35;;;;;;;0.95;53.57;99292.11;1764366;79;20924;-65
2021/12/28 05:53:27;;;;;;;23.75;13.55;;;;;;;0.95;54.59;99288.65;1765199;80;21088;-64
2021/12/28 05:55:54;;;;;;;25.77;14.90;;;;;;;0.91;54.76;99286.75;1762109;80;21467;-63
2021/12/28 05:58:20;;;;;;;26.80;13.83;;;;;;;1.16;55.52;99290.50;1773982;80;21069;-66
2021/12/28 06:00:46;;;;;;;25.70;15.28;;;;;;;1.00;53.65;99285.21;1766867;79;20956;-67
2021/12/28 06:03:13;;;;;;;24.90;13.30;;;;;;;0.88;53.19;99291.38;1755552;80;20887;-63
2021/12/28 06:05:39;;;;;;;26.02;13.40;;;;;;;0.90;53.61;99288.16;1780566;79;21133;-67
2021/12/28 06:08:05;;;;;;;27.55;14.78;;;;;;;0.86;53.45;99286.73;1772480;79;21482;-63
2021/12/28 06:10:33;;;;;;;26.23;14.28;;;;;;;0.88;54.03;99288.76;1773615;80;21545;-67
2021/12/28 06:12:59;;;;;;;24.32;14.43;;;;;;;0.89;53.85;99289.94;1774590;80;21466;-64
2021/12/28 06:15:26;;;;;;;24.85;15.03;;;;;;;0.92;53.45;99288.41;1776930;79;21008;-66
2021/12/28 06:17:52;;;;;;;26.33;15.58;;;;;;;0.96;54.58;99291.17;1780862;79;21143;-69
2021/12/28 06:20:18;;;;;;;25.77;14.73;;;;;;;0.89;53.92;99288.62;1777404;79;21020;-64
2021/12/28 06:22:45;;;;;;;27.58;15.30;;;;;;;0.85;53.22;99280.66;1762296;80;21094;-66
2021/12/28 06:25:12;;;;;;;29.45;16.27;;;;;;;0.88;53.49;99273.05;1772674;80;20991;-68
2021/12/28 06:27:38;;;;;;;25.92;14.98;;;;;;;0.96;55.77;99274.62;1766046;80;20888;-69
2021/12/28 06:30:06;;;;;;;25.88;14.68;;;;;;;0.92;58.55;99279.23;1752897;80;21778;-66
2021/12/28 06:32:33;;;;;;;28.70;14.53;;;;;;;1.08;54.17;99288.09;1772521;80;20881;-66
2021/12/28 06:34:59;;;;;;;32.67;16.10;;;;;;;1.08;58.42;99284.16;1779993;79;20895;-67
2021/12/28 06:37:28;;;;;;;30.23;15.15;;;;;;;1.01;56.10;99285.11;1789571;79;20954;-63
2021/12/28 06:39:56;;;;;;;30.65;15.55;;;;;;;0.92;76.17;99287.56;1790885;79;21466;-67
2021/12/28 06:42:22;;;;;;;34.45;16.35;;;;;;;1.00;57.35;99284.74;1796551;79;21218;-66
2021/12/28 06:44:51;;;;;;;27.95;15.78;;;;;;;0.92;54.96;99286.25;1793750;79;20986;-65
2021/12/28 06:47:16;;;;;;;25.12;15.93;;;;;;;1.03;54.72;99288.45;1799875;79;21107;-67
2021/12/28 06:49:44;;;;;;;29.00;16.32;;;;;;;0.93;54.86;99282.70;1781226;79;20994;-66
2021/12/28 06:52:14;;;;;;;33.08;16.75;;;;;;;1.05;57.24;99277.37;1789659;79;20880;-63
2021/12/28 06:54:40;;;;;;;35.70;18.15;;;;;;;1.14;56.69;99272.77;1797494;79;21135;-63
2021/12/28 06:57:10;;;;;;;29.77;16.32;;;;;;;8.18;43.99;99252.06;1792439;79;20927;-66
2021/12/28 06:59:42;;;;;;;29.20;16.67;;;;;;;7.81;41.02;99251.07;1791647;79;20985;-67
2021/12/28 07:02:06;;;;;;;26.60;15.98;;;;;;;7.33;40.56;99261.70;1783103;79;20978;-66
2021/12/28 07:04:33;;;;;;;26.80;16.02;;;;;;;7.27;40.71;99254.37;1790436;79;21039;-67
2021/12/28 07:07:00;;;;;;;30.30;16.15;;;;;;;7.30;50.48;99262.01;1790806;79;21710;-67
2021/12/28 07:09:26;;;;;;;28.65;16.40;;;;;;;7.27;52.19;99263.63;1798930;79;20971;-65
2021/12/28 07:11:53;;;;;;;28.35;16.02;;;;;;;7.42;43.57;99262.59;1786852;79;21601;-64
2021/12/28 07:14:20;;;;;;;32.08;16.87;;;;;;;7.44;69.75;99265.91;1788821;79;20860;-66
2021/12/28 07:16:47;;;;;;;32.83;16.75;;;;;;;7.38;46.85;99265.20;1800245;79;20933;-65
2021/12/28 07:19:14;;;;;;;31.70;16.80;;;;;;;7.12;53.99;99270.47;1794296;79;21097;-64
2021/12/28 07:21:41;;;;;;;26.97;16.80;;;;;;;7.48;42.92;99264.11;1790069;79;21430;-66
2021/12/28 07:24:09;;;;;;;31.77;16.77;;;;;;;7.46;43.19;99267.91;1793346;79;21022;-64
2021/12/28 07:26:35;;;;;;;30.60;18.42;;;;;;;7.52;42.00;99264.64;1782965;79;21085;-65
2021/12/28 07:29:03;;;;;;;29.48;16.90;;;;;;;7.41;44.03;99272.83;1790544;79;20855;-66
2021/12/28 07:31:32;;;;;;;31.48;18.87;;;;;;;7.40;44.22;99268.03;1789977;79;21496;-65
2021/12/28 07:33:59;;;;;;;32.67;18.20;;;;;;;7.22;86.06;99263.27;1785833;79;20994;-65
2021/12/28 07:36:25;;;;;;;33.63;18.12;;;;;;;7.72;67.30;99263.43;1781962;78;20959;-66
2021/12/28 07:38:52;;;;;;;29.18;16.95;;;;;;;7.24;42.90;99263.97;1777216;78;21556;-63
2021/12/28 07:41:18;;;;;;;31.77;18.48;;;;;;;7.41;43.30;99257.80;1779921;79;21549;-67
2021/12/28 07:43:45;;;;;;;30.05;17.62;;;;;;;7.46;44.30;99266.09;1787077;78;21152;-65
2021/12/28 07:46:11;;;;;;;33.53;17.73;;;;;;;7.22;40.76;99261.14;1794901;79;20872;-66
2021/12/28 07:48:39;;;;;;;35.50;18.07;;;;;;;7.17;41.62;99262.09;1786240;78;20936;-66
2021/12/28 07:51:07;;;;;;;31.17;17.70;;;;;;;7.14;42.17;99267.69;1734519;80;20998;-67
2021/12/28 07:53:34;;;;;;;38.70;19.15;;;;;;;7.25;41.32;99259.00;1780680;78;20895;-66
2021/12/28 07:56:01;;;;;;;40.05;19.85;;;;;;;7.11;40.65;99271.48;1784477;79;21212;-64
2021/12/28 07:58:27;;;;;;;33.67;18.27;;;;;;;7.31;40.45;99263.69;1778564;78;21461;-65
2021/12/28 08:00:56;;;;;;;36.93;19.10;;;;;;;7.57;41.57;99269.47;1788220;78;20947;-67
2021/12/28 08:03:24;;;;;;;40.03;20.10;;;;;;;7.73;42.18;99275.70;1780997;78;20970;-65
2021/12/28 08:05:51;;;;;;;33.83;18.75;;;;;;;7.89;40.59;99270.98;1737945;80;20939;-64
2021/12/28 08:08:19;;;;;;;34.88;19.37;;;;;;;7.52;41.32;99266.45;1782038;78;21174;-65
2021/12/28 08:10:45;;;;;;;32.85;18.98;;;;;;;7.30;41.40;99281.05;1778030;79;21055;-64
2021/12/28 08:13:13;;;;;;;35.33;19.23;;;;;;;7.32;39.70;99275.11;1792895;78;20872;-66
2021/12/28 08:15:40;;;;;;;35.15;19.35;;;;;;;7.31;42.04;99258.39;1772777;79;21012;-65
2021/12/28 08:18:09;;;;;;;33.25;18.57;;;;;;;7.61;39.89;99261.56;1789293;78;21544;-65
2021/12/28 08:20:37;;;;;;;37.75;19.23;;;;;;;7.34;41.59;99256.77;1779795;78;22278;-67
2021/12/28 08:23:04;;;;;;;28.50;17.62;;;;;;;7.51;40.11;99252.91;1785490;79;21391;-67
2021/12/28 08:25:30;;;;;;;31.30;18.00;;;;;;;7.50;39.84;99257.84;1785820;78;21002;-65
2021/12/28 08:27:58;;;;;;;32.15;17.15;;;;;;;7.71;40.13;99253.84;1782771;78;21059;-66
2021/12/28 08:30:24;;;;;;;30.37;16.45;;;;;;;7.92;42.19;99256.09;1784032;78;21000;-65
2021/12/28 08:32:51;;;;;;;32.25;17.55;;;;;;;7.97;41.33;99245.86;1789048;79;21135;-64
2021/12/28 08:35:17;;;;;;;28.60;16.57;;;;;;;7.92;39.65;99248.98;1798591;78;21445;-62
2021/12/28 08:37:44;;;;;;;33.13;17.27;;;;;;;8.14;39.38;99248.89;1796782;79;20962;-66
2021/12/28 08:40:13;;;;;;;32.50;17.07;;;;;;;8.17;39.13;99237.97;1802406;78;21054;-67
2021/12/28 08:42:40;;;;;;;26.87;15.68;;;;;;;8.06;40.12;99242.23;1797072;79;21021;-67
2021/12/28 08:45:08;;;;;;;24.65;14.35;;;;;;;8.29;38.38;99243.33;1805711;79;21150;-66
2021/12/28 08:47:35;;;;;;;26.12;16.80;;;;;;;8.23;39.39;99228.55;1809109;78;21005;-66
2021/12/28 08:50:01;;;;;;;24.30;14.45;;;;;;;8.38;38.00;99238.40;1799110;78;20887;-64
2021/12/28 08:52:30;;;;;;;23.32;14.65;;;;;;;8.52;38.24;99232.97;1795013;78;21552;-63
2021/12/28 08:54:58;;;;;;;25.00;14.43;;;;;;;8.67;38.32;99235.30;1799965;79;20965;-68
2021/12/28 08:57:25;;;;;;;25.95;15.70;;;;;;;8.84;40.58;99246.25;1799742;79;21076;-62
2021/12/28 08:59:52;;;;;;;23.10;15.32;;;;;;;9.04;39.33;99240.97;1801391;78;20995;-65
2021/12/28 09:02:18;;;;;;;22.85;14.07;;;;;;;8.87;37.68;99247.74;1794374;78;20898;-64
2021/12/28 09:04:46;;;;;;;21.27;14.70;;;;;;;8.80;37.35;99248.08;1810544;79;21020;-66
2021/12/28 09:07:14;;;;;;;24.50;15.18;;;;;;;8.73;37.58;99236.48;1805987;79;20959;-67
2021/12/28 09:09:41;;;;;;;18.92;12.90;;;;;;;8.77;39.78;99235.97;1797445;78;21053;-67
2021/12/28 09:12:09;;;;;;;21.97;14.43;;;;;;;9.20;38.62;99241.47;1786846;78;21560;-62
2021/12/28 09:14:39;;;;;;;19.70;13.10;;;;;;;8.59;41.99;99237.45;1797022;79;21001;-64
2021/12/28 09:17:06;;;;;;;19.90;12.23;;;;;;;8.62;37.16;99239.78;1803007;78;21484;-63
2021/12/28 09:19:34;;;;;;;20.75;12.68;;;;;;;8.83;37.69;99233.16;1807311;79;21492;-63
2021/12/28 09:22:01;;;;;;;19.23;13.32;;;;;;;8.47;39.05;99236.09;1800347;78;21133;-63
2021/12/28 09:24:28;;;;;;;16.62;12.13;;;;;;;8.36;39.21;99236.41;1799285;78;20971;-64
2021/12/28 09:26:54;;;;;;;17.95;12.47;;;;;;;8.28;37.12;99230.25;1799624;78;21540;-67
2021/12/28 09:29:20;;;;;;;20.92;12.90;;;;;;;8.35;37.63;99237.39;1792223;78;20895;-64
2021/12/28 09:31:47;;;;;;;16.48;12.43;;;;;;;8.24;38.01;99231.03;1803221;79;21000;-64
2021/12/28 09:34:13;;;;;;;20.97;12.93;;;;;;;8.15;37.62;99230.69;1808455;78;21884;-67
2021/12/28 09:36:40;;;;;;;19.82;13.72;;;;;;;8.30;37.30;99224.29;1796846;79;20931;-68
2021/12/28 09:39:08;;;;;;;19.62;13.90;;;;;;;8.32;38.66;99219.16;1786912;79;21002;-69
2021/12/28 09:41:35;;;;;;;20.17;13.10;;;;;;;8.03;39.40;99220.03;1797141;79;21014;-68
2021/12/28 09:44:04;;;;;;;19.92;12.75;;;;;;;8.38;37.44;99222.50;1796305;79;20944;-69
2021/12/28 09:46:32;;;;;;;16.07;11.70;;;;;;;8.61;37.12;99220.88;1787804;79;20937;-70
2021/12/28 09:48:58;;;;;;;15.90;11.75;;;;;;;8.68;38.36;99210.45;1788503;79;22399;-72
2021/12/28 09:51:26;;;;;;;19.12;12.82;;;;;;;8.66;38.26;99210.60;1786145;79;21513;-71
2021/12/28 09:53:52;;;;;;;19.92;13.05;;;;;;;8.41;37.14;99217.36;1795451;79;21493;-69
2021/12/28 09:56:18;;;;;;;17.23;12.20;;;;;;;8.97;38.02;99221.91;1793852;79;20959;-69
2021/12/28 09:58:46;;;;;;;23.20;14.53;;;;;;;9.03;42.07;99219.40;1787815;79;21095;-70
2021/12/28 10:01:13;;;;;;;22.07;13.88;;;;;;;9.41;37.46;99215.19;1779776;79;20994;-70
2021/12/28 10:03:41;;;;;;;17.92;11.85;;;;;;;9.61;36.46;99209.85;1789320;79;20971;-68
2021/12/28 10:06:20;;;;;;;17.17;12.13;;;;;;;9.77;38.68;99216.45;1780268;79;20923;-69
2021/12/28 10:08:47;;;;;;;18.35;12.68;;;;;;;9.58;36.07;99204.05;1790490;79;20986;-67
2021/12/28 10:11:16;;;;;;;14.93;11.55;;;;;;;9.58;36.07;99204.05;1795655;79;21130;-68
2021/12/28 10:13:44;;;;;;;17.62;11.33;;;;;;;10.17;36.66;99209.30;1792960;79;20954;-70
2021/12/28 10:16:10;;;;;;;16.10;11.90;;;;;;;10.81;35.79;99203.59;1792457;79;21500;-68
2021/12/28 10:18:37;;;;;;;17.30;12.20;;;;;;;11.18;34.72;99201.45;1795277;79;20927;-69
2021/12/28 10:21:05;;;;;;;15.93;12.10;;;;;;;11.25;34.98;99203.70;1792086;79;20986;-69
2021/12/28 10:23:32;;;;;;;15.35;12.00;;;;;;;11.49;35.15;99210.13;1786534;79;21758;-70
2021/12/28 10:26:05;;;;;;;16.30;12.35;;;;;;;11.40;32.28;99211.70;1796233;79;21030;-69
2021/12/28 10:28:36;;;;;;;13.95;11.75;;;;;;;11.50;33.86;99197.11;1796640;79;20848;-69
2021/12/28 10:31:12;;;;;;;16.40;13.00;;;;;;;11.77;34.01;99201.02;1797290;79;20959;-71
2021/12/28 10:33:39;;;;;;;19.27;12.67;;;;;;;11.71;35.02;99201.73;1784866;79;20932;-70
2021/12/28 10:36:10;;;;;;;16.90;12.13;;;;;;;11.71;35.02;99201.73;1795181;79;21873;-68
2021/12/28 10:38:42;;;;;;;15.15;11.45;;;;;;;10.84;33.64;99207.23;1782165;79;21564;-69
2021/12/28 10:41:12;;;;;;;15.35;12.05;;;;;;;10.72;33.59;99209.13;1796062;79;20887;-70
2021/12/28 10:43:45;;;;;;;14.85;11.35;;;;;;;10.55;33.92;99204.45;1795149;79;20935;-70
2021/12/28 10:46:17;;;;;;;14.85;12.07;;;;;;;10.00;33.42;99211.70;1776276;79;20954;-69
2021/12/28 10:48:49;;;;;;;14.00;11.63;;;;;;;9.75;34.10;99205.66;1783214;79;21143;-69
2021/12/28 10:51:28;;;;;;;16.90;12.15;;;;;;;9.67;35.04;99203.84;1787285;79;20978;-70
2021/12/28 10:56:25;;;;;;;16.80;11.83;;;;;;;9.42;34.61;99202.26;1787706;79;21112;-70
2021/12/28 10:58:52;;;;;;;17.67;12.63;;;;;;;9.20;34.92;99204.30;1786114;79;21002;-72
2021/12/28 11:01:29;;;;;;;16.17;12.05;;;;;;;9.07;35.51;99200.01;1791571;79;21198;-71
2021/12/28 11:03:59;;;;;;;14.95;12.47;;;;;;;9.16;35.88;99205.63;1798170;79;21081;-71
2021/12/28 11:06:36;;;;;;;13.68;11.80;;;;;;;9.20;35.47;99147.24;1792109;79;21100;-72
2021/12/28 11:09:10;;;;;;;19.00;12.45;;;;;;;9.53;36.69;99201.91;1799179;79;21434;-71
2021/12/28 11:11:40;;;;;;;17.67;12.82;;;;;;;9.59;34.96;99200.40;1795915;79;20927;-71
2021/12/28 11:14:16;;;;;;;16.70;12.73;;;;;;;9.59;34.93;99191.94;1790851;79;21484;-71
2021/12/28 11:16:52;;;;;;;;;;;;;;;9.89;34.31;99187.16;1802015;79;21074;-69
2021/12/28 11:19:25;;;;;;;;;;;;;;;10.08;34.05;99187.24;1796470;79;20464;-71
2021/12/28 11:21:55;;;;;;;21.97;12.13;;;;;;;10.34;33.63;99184.30;1801031;79;20392;-67
2021/12/28 11:24:21;;;;;;;23.57;12.43;;;;;;;10.45;33.26;99175.40;1795600;79;20888;-65
2021/12/28 11:26:50;;;;;;;14.13;11.70;;;;;;;10.65;33.03;99172.28;1795324;79;21263;-66
2021/12/28 11:29:23;;;;;;;13.70;11.15;;;;;;;10.47;32.32;99164.60;1794673;79;21042;-64
2021/12/28 11:31:58;;;;;;;14.43;11.80;;;;;;;10.53;32.30;99159.91;1797549;79;20986;-65